x

Ne Burgeo Bank (44255) Wave Buoy

5:00pm - Fri 26th Aug 2016 All times are ADT. -3 hours from GMT.

  • Sig Wave height 6.2ft
  • Peak Period 7s
  • Wind
    9mph
  • Sea Temp 62°f
  • Sea Pressure 1012.3mb
  • Ne Burgeo Bank
  • Ne Burgeo Bank

More Historic Weather Station data

Upgrade to MSW Pro to gain access to the past 30 days of data for over 8000 Wavebouys and Weather Stations around the globe.

Join Pro

Comparision Forecast

View Surf forecast
   
Fri 08/26 5:00pm 6ft 7s 9
mph
1012.3mb 62f
4:00pm 7ft 8s 11 16 mph 1012.3mb 62f
3:00pm 7ft 8s 13 16 mph 1012.5mb 62f
2:00pm 7ft 8s 13 18 mph 1012.7mb 62f
1:00pm 6.5ft 8s 13
mph
1013.1mb 62f
12:00pm 7ft 8s 13 16 mph 1013.4mb 63f
11:00am 6.5ft 8s 18 22 mph 1013.4mb 63f
10:00am 7ft 8s 18 22 mph 1013.4mb 63f
9:00am 7ft 8s 18 22 mph 1013.1mb 63f
8:00am 7ft 7s 20 25 mph 1012.9mb 63f
7:00am 7.5ft 7s 20 22 mph 1012.9mb 63f
6:00am 7.5ft 8s 20 25 mph 1012.7mb 63f
5:00am 7ft 8s 20 25 mph 1012.4mb 63f
4:00am 6ft 7s 22 27 mph 1012.5mb 63f
3:00am 6.5ft 8s 18 22 mph 1012.9mb 63f
2:00am 6.5ft 7s 20 25 mph 1013mb 63f
1:00am 6ft 7s 22 27 mph 1013.3mb 63f
12:00am 6ft 7s 18 22 mph 1014mb 64f
Thu 08/25 11:00pm 6ft 6s 20 27 mph 1014mb 64f
10:00pm 6ft 7s 20 22 mph 1014mb 64f
9:00pm 5.5ft 7s 18 22 mph 1014.3mb 64f
8:00pm 5.5ft 6s 16 20 mph 1014.5mb 64f
7:00pm 5ft 6s 13 18 mph 1014.9mb 64f
6:00pm 4.5ft 5s 18 20 mph 1014.6mb 64f
5:00pm 4.5ft 5s 16 18 mph 1015.5mb 64f
4:00pm 4ft 5s 16 20 mph 1015.3mb 64f
3:00pm 3.5ft 5s 16 18 mph 1015.7mb 64f
2:00pm 3.5ft 5s 16 18 mph 1016.3mb 64f
1:00pm 3.5ft 7s 13 16 mph 1016.5mb 64f
12:00pm 3.5ft 7s 11 13 mph 1016.6mb 64f
11:00am 3.5ft 7s 11 13 mph 1016.8mb 64f
10:00am 3.5ft 7s 9 11 mph 1017mb 63f
9:00am 3.5ft 7s 4 7 mph 1017.2mb 63f
8:00am 3.5ft 7s 9 11 mph 1017.4mb 63f
7:00am 4ft 7s 16 18 mph 1016.9mb 63f
6:00am 3.5ft 6s 16 18 mph 1016.7mb 63f
5:00am 3.5ft 7s 13
mph
1017mb 63f
4:00am 4ft 6s 11
mph
1017.1mb 63f
3:00am 4.5ft 7s 11 13 mph 1017.6mb 63f
2:00am 4.5ft 6s 9 11 mph 1017.8mb 63f
1:00am 4.5ft 6s 9
mph
1017.7mb 63f
12:00am 4.5ft 6s 11 13 mph 1018.5mb 63f
Wed 08/24 11:00pm 4.5ft 6s 13 16 mph 1018mb 63f
10:00pm 4.5ft 5s 11
mph
1018mb 63f
9:00pm 4.5ft 6s 13 16 mph 1018.1mb 63f
8:00pm 4ft 7s 13 16 mph 1017.3mb 63f
7:00pm 3.5ft 8s 16 18 mph 1016.9mb 63f
6:00pm 3.5ft 8s 11 13 mph 1017mb 63f
5:00pm 3.5ft 8s 11 13 mph 1017.4mb 63f
4:00pm 4ft 7s 13 18 mph 1017.5mb 63f
3:00pm 4.5ft 7s 16 20 mph 1017.2mb 63f
2:00pm 4.5ft 8s 16 18 mph 1017.5mb 63f
1:00pm 4.5ft 7s 16 20 mph 1017.7mb 63f
12:00pm 4.5ft 7s 16 18 mph 1017.9mb 63f
11:00am 5ft 8s 16 18 mph 1018.1mb 62f
10:00am 4.5ft 8s 13 18 mph 1018mb 62f
9:00am 5ft 8s 11 13 mph 1017.9mb 62f
8:00am 5ft 7s 11 13 mph 1017.8mb 62f
7:00am 5ft 7s 13
mph
1017.8mb 63f
6:00am 5ft 8s 9 11 mph 1017.5mb 63f
5:00am 5ft 8s 13 16 mph 1016.9mb 63f
4:00am 5.5ft 7s 13 18 mph 1016.7mb 63f
3:00am 5.5ft 8s 9 11 mph 1017mb 63f
2:00am 6ft 8s 13 18 mph 1016.8mb 63f
1:00am 6.5ft 8s 13 18 mph 1016.5mb 63f
12:00am 7ft 7s 16 18 mph 1016.4mb 63f
Tue 08/23 11:00pm 7.5ft 8s 18 25 mph 1015.9mb 63f
10:00pm 8ft 8s 25 29 mph 1015.1mb 63f
9:00pm 8ft 7s 25 29 mph 1014mb 63f
8:00pm 8ft 7s 29 36 mph 1013.3mb 63f
7:00pm 8ft 6s 27 34 mph 1012.3mb 63f
6:00pm 7ft 6s 27 31 mph 1011.7mb 63f
5:00pm 6.5ft 6s 27 34 mph 1011.4mb 63f
4:00pm 6ft 7s 27 34 mph 1010.5mb 63f
3:00pm 6ft 7s 22 27 mph 1009.4mb 63f
2:00pm 6ft 7s 22 29 mph 1009mb 64f
1:00pm 5.5ft 7s 18 22 mph 1009mb 64f
12:00pm 5.5ft 7s 16 18 mph 1008.9mb 63f
11:00am 5ft 7s 20 25 mph 1008.1mb 63f
10:00am 5.5ft 7s 13 18 mph 1007.8mb 62f
9:00am 5.5ft 7s 13 16 mph 1007.7mb 62f
8:00am 6ft 7s 18 20 mph 1007.2mb 62f
7:00am 6ft 7s 13 18 mph 1006.5mb 62f
6:00am 7ft 7s 11 16 mph 1006.1mb 62f
5:00am 7ft 7s 18 22 mph 1006.8mb 61f
4:00am 6.5ft 7s 13 16 mph 1008mb 61f
3:00am 7ft 7s 13 16 mph 1009.1mb 61f
2:00am 7.5ft 7s 16 18 mph 1009.3mb 61f
1:00am 7.5ft 7s 20 22 mph 1010mb 61f
12:00am 7ft 6s 22 27 mph 1010.4mb 62f
Mon 08/22 11:00pm 6.5ft 6s 22 27 mph 1011.4mb 62f
10:00pm 5ft 5s 25 27 mph 1012.1mb 63f